Latest Weather Observations for Lockhart River

IDQ60801

Issued at 5:32 pm EST Saturday 22 September 2018 (issued every 10 minutes, with the page automatically refreshed every 10 minutes)

About weather observations | Map of weather stations | Latest weather observations for QLD | Other Formats
Station Details ID: 028008 Name: LOCKHART RIVER AIRPORT Lat: -12.79 Lon: 143.30 Height: 18.5 m
Data from the previous 72 hours. | See also: Recent months at Lockhart River
Date/Time
EST
Temp
°C
App
Temp
°C
Dew
Point
°C
Rel
Hum
%
Delta-T
°C
Wind Press
QNH
hPa
Press
MSL
hPa
Rain since
9am
mm
Dir  Spd
km/h
Gust
km/h
Spd
kts
Gust
kts
22/05:30pm 26.1 24.9 20.0 69 4.0 SE 26 37 14 20 1015.0 1015.0 0.0
22/05:00pm 27.0 25.3 19.9 65 4.6 SE 28 39 15 21 1015.0 1015.0 0.0
22/04:30pm 27.5 25.8 19.8 63 5.0 SE 28 44 15 24 1015.0 1015.0 0.0
22/04:00pm 27.5 25.8 19.8 63 5.0 ESE 28 39 15 21 1014.9 1014.8 0.0
22/03:30pm 27.6 25.9 19.7 62 5.1 ESE 28 48 15 26 1014.9 1014.8 0.0
22/03:24pm 27.9 25.6 19.4 60 5.5 ESE 30 48 16 26 1015.0 1015.0 0.0
22/03:00pm 27.9 25.1 19.1 58 5.7 SE 32 46 17 25 1015.0 1015.0 0.0
22/02:31pm 28.0 26.2 19.5 60 5.5 SE 28 46 15 25 1015.3 1015.3 0.0
22/02:30pm 27.9 25.6 19.4 60 5.5 SE 30 46 16 25 1015.3 1015.3 0.0
22/02:00pm 27.8 25.1 19.3 60 5.5 ESE 32 44 17 24 1015.5 1015.5 0.0
22/01:30pm 28.2 26.5 19.7 60 5.5 ESE 28 44 15 24 1015.8 1015.8 0.0
22/01:08pm 28.0 25.3 19.2 58 5.7 SE 32 50 17 27 1016.1 1016.1 0.0
22/01:00pm 27.5 24.8 19.6 62 5.1 SE 33 44 18 24 1016.2 1016.2 0.0
22/12:39pm 27.3 24.9 19.1 61 5.3 ESE 30 48 16 26 1016.5 1016.5 0.0
22/12:30pm 27.1 24.4 19.2 62 5.1 ESE 32 46 17 25 1016.6 1016.6 0.0
22/12:00pm 28.1 25.8 19.3 58 5.7 ESE 30 44 16 24 1017.1 1017.1 0.0
22/11:30am 28.7 26.2 20.2 60 5.6 SE 33 50 18 27 1017.5 1017.5 0.0
22/11:01am 28.6 26.5 20.6 62 5.3 SE 32 50 17 27 1017.7 1017.7 0.0
22/11:00am 27.7 25.1 20.0 63 5.0 SE 33 50 18 27 1017.7 1017.7 0.0
22/10:47am 27.0 24.7 19.4 63 4.9 ESE 30 48 16 26 1017.8 1017.8 0.0
22/10:30am 27.9 25.6 20.2 63 5.1 SE 32 46 17 25 1017.8 1017.8 0.0
22/10:00am 27.0 24.6 19.1 62 5.1 ESE 30 48 16 26 1017.9 1017.9 0.0
22/09:30am 27.0 24.4 19.4 63 4.9 ESE 32 50 17 27 1017.9 1017.9 0.0
22/09:09am 26.6 24.4 19.5 65 4.6 SE 30 50 16 27 1017.8 1017.8 0.0
22/09:00am 26.7 25.5 20.1 67 4.3 ESE 26 44 14 24 1017.7 1017.7 0.0
22/08:52am 26.8 25.1 19.9 66 4.5 ESE 28 46 15 25 1017.7 1017.7 0.0
22/08:30am 26.0 23.1 19.2 66 4.4 ESE 33 46 18 25 1017.5 1017.5 0.0
22/08:24am 26.3 24.4 19.4 66 4.5 ESE 28 46 15 25 1017.3 1017.3 0.0
22/08:00am 26.3 24.3 19.2 65 4.6 ESE 28 41 15 22 1017.2 1017.2 0.0
22/07:46am 25.8 23.8 19.2 67 4.2 ESE 28 46 15 25 1017.0 1017.0 0.0
22/07:30am 25.6 23.7 19.3 68 4.0 ESE 28 43 15 23 1016.6 1016.6 0.0
22/07:07am 25.1 23.3 19.5 71 3.6 ESE 28 46 15 25 1016.4 1016.4 0.0
22/07:00am 25.0 23.2 19.6 72 3.5 ESE 28 41 15 22 1016.3 1016.3 0.0
22/06:42am 24.7 22.9 19.5 73 3.3 SE 28 46 15 25 1016.0 1016.0 0.0
22/06:30am 24.6 23.2 19.7 74 3.2 SE 26 39 14 21 1015.8 1015.8 0.0
22/06:00am 24.6 23.1 19.4 73 3.3 SE 26 41 14 22 1015.4 1015.4 0.0
22/05:30am 24.7 23.4 19.1 71 3.6 ESE 24 37 13 20 1015.2 1015.2 0.0
22/05:00am 24.8 22.4 19.0 70 3.7 SE 30 44 16 24 1015.0 1015.0 0.0
22/04:30am 24.7 22.6 18.9 70 3.7 ESE 28 41 15 22 1014.8 1014.7 0.0
22/04:00am 24.6 22.2 19.0 71 3.6 SE 30 46 16 25 1014.5 1014.4 0.0
22/03:40am 24.7 22.2 18.9 70 3.7 SE 30 48 16 26 1014.6 1014.5 0.0
22/03:30am 24.7 22.0 19.3 72 3.5 SE 32 44 17 24 1014.5 1014.4 0.0
22/03:00am 24.7 22.3 19.1 71 3.6 SE 30 46 16 25 1014.5 1014.4 0.0
22/02:31am 24.8 22.4 19.0 70 3.7 SE 30 48 16 26 1014.7 1014.6 0.0
22/02:30am 24.8 22.4 19.0 70 3.7 SE 30 46 16 25 1014.7 1014.6 0.0
22/02:01am 24.9 22.1 19.1 70 3.7 SE 32 50 17 27 1015.1 1015.1 0.0
22/02:00am 24.9 21.9 19.1 70 3.7 SE 33 50 18 27 1015.1 1015.1 0.0
22/01:30am 24.9 21.5 19.1 70 3.7 SE 35 46 19 25 1015.2 1015.2 0.0
22/01:00am 24.9 22.2 19.3 71 3.6 SE 32 46 17 25 1015.7 1015.7 0.0
22/12:30am 24.9 23.1 19.5 72 3.5 SE 28 41 15 22 1016.1 1016.1 0.0
22/12:00am 25.0 21.8 19.4 71 3.6 SE 35 54 19 29 1016.4 1016.4 0.0
 
Date/Time
EST
Temp
°C
App
Temp
°C
Dew
Point
°C
Rel
Hum
%
Delta-T
°C
Wind Press
QNH
hPa
Press
MSL
hPa
Rain since
9am
mm
Dir  Spd
km/h
Gust
km/h
Spd
kts
Gust
kts
21/11:59pm 25.0 21.8 19.4 71 3.6 SE 35 54 19 29 1016.4 1016.4 0.0
21/11:30pm 25.0 23.3 19.8 73 3.4 SE 28 44 15 24 1016.6 1016.6 0.0
21/11:16pm 25.0 22.8 19.6 72 3.5 SE 30 50 16 27 1016.6 1016.6 0.0
21/11:00pm 25.0 23.3 19.8 73 3.4 SE 28 43 15 23 1016.7 1016.7 0.0
21/10:30pm 25.0 23.3 19.8 73 3.4 SE 28 39 15 21 1016.6 1016.6 0.0
21/10:00pm 25.1 24.3 20.1 74 3.2 SE 24 43 13 23 1016.7 1016.7 0.0
21/09:30pm 25.2 23.5 20.5 75 3.1 SE 30 44 16 24 1016.6 1016.6 0.0
21/09:00pm 25.2 22.9 20.2 74 3.2 SE 32 41 17 22 1016.4 1016.4 0.0
21/08:30pm 25.2 24.3 20.7 76 2.9 SE 26 35 14 19 1016.1 1016.1 0.0
21/08:00pm 25.2 25.6 20.9 77 2.8 SE 20 32 11 17 1015.7 1015.7 0.0
21/07:30pm 25.2 24.8 20.9 77 2.8 SE 24 33 13 18 1015.1 1015.1 0.0
21/07:02pm 25.3 25.8 21.2 78 2.7 SE 20 30 11 16 1014.5 1014.4 0.0
21/07:00pm 25.3 25.8 21.2 78 2.7 SE 20 32 11 17 1014.5 1014.4 0.0
21/06:30pm 25.3 25.8 21.2 78 2.7 SE 20 32 11 17 1014.0 1013.9 0.0
21/06:00pm 25.1 25.6 21.2 79 2.6 SE 20 30 11 16 1013.5 1013.4 0.0
21/05:30pm 25.1 25.0 21.4 80 2.4 SE 24 35 13 19 1013.4 1013.3 0.0
21/05:00pm 25.6 26.7 21.3 77 2.8 SSE 17 24 9 13 1013.0 1012.9 0.0
21/04:30pm 25.8 27.1 21.7 78 2.7 SE 17 22 9 12 1013.0 1012.9 0.0
21/04:12pm 25.5 26.4 22.0 81 2.3 SE 20 28 11 15 1013.0 1012.9 0.0
21/04:03pm 25.6 26.5 21.9 80 2.5 SE 20 28 11 15 1013.0 1012.9 0.0
21/04:00pm 25.3 25.6 21.6 80 2.5 SE 22 32 12 17 1012.9 1012.8 0.0
21/03:49pm 25.8 26.5 21.5 77 2.9 SE 20 28 11 15 1012.8 1012.7 0.0
21/03:46pm 25.8 26.5 21.2 76 3.0 SE 19 26 10 14 1012.8 1012.7 0.0
21/03:30pm 25.7 25.6 21.4 77 2.9 SE 24 32 13 17 1012.9 1012.8 0.0
21/03:26pm 25.8 26.1 21.5 77 2.9 SE 22 32 12 17 1012.9 1012.8 0.0
21/03:00pm 26.5 26.9 21.0 72 3.6 SE 20 28 11 15 1012.7 1012.6 0.0
21/02:30pm 26.3 26.1 20.6 71 3.7 SE 22 35 12 19 1012.9 1012.8 0.0
21/02:00pm 26.9 26.5 21.0 70 3.9 SE 24 35 13 19 1013.1 1013.0 0.0
21/01:30pm 27.5 27.6 21.1 68 4.2 ESE 22 28 12 15 1013.3 1013.2 0.0
21/01:00pm 27.5 27.7 20.6 66 4.5 SE 20 30 11 16 1013.7 1013.6 0.0
21/12:30pm 27.7 27.9 20.5 65 4.7 ESE 20 32 11 17 1014.1 1014.0 0.0
21/12:00pm 27.0 26.2 20.1 66 4.5 ESE 24 35 13 19 1014.6 1014.5 0.0
21/11:30am 27.9 27.2 20.2 63 5.1 SE 24 35 13 19 1014.9 1014.8 0.0
21/11:00am 28.0 27.7 20.3 63 5.1 ESE 22 33 12 18 1015.2 1015.2 0.0
21/10:30am 27.8 27.5 20.4 64 4.9 SE 22 37 12 20 1015.6 1015.6 0.0
21/10:00am 27.0 26.5 19.9 65 4.6 ESE 22 33 12 18 1015.5 1015.5 0.0
21/09:30am 26.4 25.1 19.8 67 4.3 SE 26 37 14 20 1015.4 1015.4 0.0
21/09:00am 26.5 25.8 20.3 68 4.1 ESE 24 32 13 17 1015.1 1015.1 0.0
21/08:30am 25.7 24.9 20.0 71 3.7 SE 24 35 13 19 1014.8 1014.7 0.0
21/08:00am 25.2 25.8 20.2 74 3.3 ESE 17 26 9 14 1014.3 1014.2 0.0
21/07:30am 24.7 24.7 19.8 74 3.2 ESE 19 28 10 15 1014.1 1014.0 0.0
21/07:00am 24.6 25.0 19.9 75 3.0 ESE 17 26 9 14 1013.8 1013.7 0.0
21/06:30am 24.4 24.2 19.7 75 3.0 ESE 20 30 11 16 1013.6 1013.5 0.0
21/06:00am 24.3 24.6 19.6 75 3.0 ESE 17 24 9 13 1013.1 1013.0 0.0
21/05:30am 24.2 24.2 19.7 76 2.9 ESE 19 28 10 15 1012.8 1012.7 0.0
21/05:00am 24.2 24.5 19.7 76 2.9 ESE 17 28 9 15 1012.4 1012.3 0.0
21/04:30am 24.1 24.4 19.6 76 2.9 ESE 17 22 9 12 1012.1 1012.0 0.0
21/04:00am 24.1 24.5 19.8 77 2.8 ESE 17 24 9 13 1012.1 1012.0 0.0
21/03:30am 24.0 24.3 19.5 76 2.9 ESE 17 22 9 12 1012.0 1011.9 0.0
21/03:00am 24.1 24.0 19.6 76 2.9 SE 19 24 10 13 1012.0 1011.9 0.0
21/02:30am 24.0 24.2 19.3 75 3.0 ESE 17 26 9 14 1012.1 1012.0 0.0
21/02:00am 24.0 24.6 19.5 76 2.9 ESE 15 22 8 12 1012.2 1012.1 0.0
21/01:30am 24.1 24.4 19.6 76 2.9 ESE 17 22 9 12 1012.4 1012.3 0.0
21/01:00am 24.0 24.6 19.5 76 2.9 SE 15 22 8 12 1012.7 1012.6 0.0
21/12:30am 24.2 24.5 19.5 75 3.0 SE 17 26 9 14 1013.0 1012.9 0.0
21/12:00am 24.1 24.8 19.6 76 2.9 SE 15 24 8 13 1013.3 1013.2 0.0
 
Date/Time
EST
Temp
°C
App
Temp
°C
Dew
Point
°C
Rel
Hum
%
Delta-T
°C
Wind Press
QNH
hPa
Press
MSL
hPa
Rain since
9am
mm
Dir  Spd
km/h
Gust
km/h
Spd
kts
Gust
kts
20/11:30pm 23.9 25.8 19.8 78 2.6 SE 9 13 5 7 1013.4 1013.3 0.0
20/11:00pm 23.7 25.6 19.8 79 2.5 SE 9 13 5 7 1013.6 1013.5 0.0
20/10:30pm 22.6 24.9 19.4 82 2.0 SSE 6 7 3 4 1013.7 1013.6 0.0
20/10:00pm 22.2 25.5 19.2 83 1.9 CALM 0 0 0 0 1013.9 1013.8 0.0
20/09:30pm 23.1 26.1 19.3 79 2.4 S 2 6 1 3 1013.8 1013.7 0.0
20/09:00pm 23.3 25.3 19.2 78 2.6 S 7 9 4 5 1013.6 1013.5 0.0
20/08:30pm 24.2 26.1 19.7 76 2.9 SE 9 11 5 6 1013.4 1013.3 0.0
20/08:00pm 24.7 26.2 19.8 74 3.2 ESE 11 19 6 10 1013.0 1012.9 0.0
20/07:30pm 24.3 24.9 19.4 74 3.1 SE 15 20 8 11 1012.7 1012.6 0.0
20/07:00pm 24.5 24.9 18.9 71 3.6 SE 15 20 8 11 1012.4 1012.3 0.0
20/06:30pm 24.6 24.3 18.3 68 4.0 SE 17 28 9 15 1012.1 1012.0 0.0
20/06:00pm 25.2 23.7 17.7 63 4.7 SE 22 30 12 16 1011.7 1011.6 0.0
20/05:30pm 25.6 23.6 17.5 61 5.1 SE 24 33 13 18 1011.7 1011.6 0.0
20/05:00pm 26.0 24.0 16.5 55 5.9 ESE 22 39 12 21 1011.6 1011.5 0.0
20/04:30pm 26.7 24.4 15.7 51 6.7 ESE 22 35 12 19 1011.5 1011.4 0.0
20/04:00pm 27.3 23.0 14.3 45 7.8 SE 30 41 16 22 1011.4 1011.3 0.0
20/03:30pm 27.7 23.8 15.4 47 7.5 SE 30 46 16 25 1011.4 1011.3 0.0
20/03:00pm 29.1 25.8 16.0 45 8.1 SE 28 39 15 21 1011.6 1011.5 0.0
20/02:30pm 29.9 26.5 16.7 45 8.3 SE 30 41 16 22 1011.9 1011.8 0.0
20/02:00pm 28.5 24.3 15.8 46 7.8 ESE 32 41 17 22 1012.0 1011.9 0.0
20/01:30pm 28.6 24.8 15.8 45 7.9 SE 30 43 16 23 1012.3 1012.2 0.0
20/01:00pm 29.2 25.7 17.4 49 7.5 SE 32 46 17 25 1012.9 1012.8 0.0
20/12:43pm 29.0 25.7 16.9 48 7.6 ESE 30 50 16 27 1013.1 1013.0 0.0
20/12:30pm 29.0 24.9 15.9 45 8.1 SE 32 48 17 26 1013.4 1013.3 0.0
20/12:00pm 28.9 24.9 16.8 48 7.6 SE 33 44 18 24 1013.8 1013.7 0.0
20/11:46am 28.1 24.3 15.7 46 7.6 SE 30 48 16 26 1013.9 1013.8 0.0
20/11:44am 28.9 25.4 16.5 47 7.7 SE 30 48 16 26 1013.9 1013.8 0.0
20/11:30am 28.7 26.6 17.2 49 7.2 ESE 24 41 13 22 1014.0 1013.9 0.0
20/11:00am 28.5 25.9 17.7 52 6.8 ESE 28 44 15 24 1014.2 1014.1 0.0
20/10:30am 27.5 23.7 16.8 52 6.7 SE 32 43 17 23 1014.6 1014.5 0.0
20/10:00am 27.8 25.5 17.6 53 6.4 SE 26 39 14 21 1014.5 1014.4 0.0
20/09:30am 27.5 26.0 18.5 58 5.8 ESE 24 39 13 21 1014.6 1014.5 0.0
20/09:00am 26.6 24.8 17.9 59 5.5 SE 24 33 13 18 1014.4 1014.3 0.0
20/08:30am 25.7 25.9 18.6 65 4.5 SE 15 28 8 15 1014.0 1013.9 0.0
20/08:00am 23.1 24.1 18.6 76 2.8 S 11 15 6 8 1014.0 1013.9 0.0
20/07:30am 20.2 23.3 18.7 91 0.9 CALM 0 0 0 0 1013.7 1013.6 0.0
20/07:00am 18.1 20.5 17.1 94 0.6 CALM 0 0 0 0 1013.2 1013.1 0.0
20/06:30am 17.9 20.1 16.6 92 0.8 CALM 0 0 0 0 1012.8 1012.7 0.0
20/06:00am 18.3 20.7 17.0 92 0.8 CALM 0 0 0 0 1012.5 1012.4 0.0
20/05:30am 18.6 21.0 17.1 91 0.9 CALM 0 0 0 0 1012.0 1011.9 0.0
20/05:00am 19.1 21.6 17.2 89 1.2 CALM 0 0 0 0 1011.8 1011.7 0.0
20/04:30am 19.3 21.8 17.3 88 1.2 CALM 0 0 0 0 1011.7 1011.6 0.0
20/04:00am 20.2 22.8 17.6 85 1.6 CALM 0 0 0 0 1011.7 1011.6 0.0
20/03:30am 22.0 23.6 18.2 79 2.4 SSE 7 11 4 6 1011.8 1011.7 0.0
20/03:00am 22.5 23.7 18.3 77 2.6 SE 9 13 5 7 1011.9 1011.8 0.0
20/02:30am 22.7 23.9 18.3 76 2.8 SE 9 13 5 7 1012.0 1011.9 0.0
20/02:00am 22.7 23.8 18.0 75 2.9 SSE 9 13 5 7 1012.3 1012.2 0.0
20/01:30am 23.0 24.1 18.1 74 3.1 SE 9 13 5 7 1012.5 1012.4 0.0
20/01:00am 23.0 24.1 18.1 74 3.1 SE 9 13 5 7 1012.8 1012.7 0.0
20/12:30am 23.7 24.1 18.1 71 3.5 SE 13 19 7 10 1013.3 1013.2 0.0
20/12:00am 23.8 23.8 18.2 71 3.5 SE 15 22 8 12 1013.8 1013.7 0.0
 
Date/Time
EST
Temp
°C
App
Temp
°C
Dew
Point
°C
Rel
Hum
%
Delta-T
°C
Wind Press
QNH
hPa
Press
MSL
hPa
Rain since
9am
mm
Dir  Spd
km/h
Gust
km/h
Spd
kts
Gust
kts
19/11:30pm 24.1 24.4 18.7 72 3.4 SE 15 24 8 13 1014.0 1013.9 0.0
19/11:00pm 24.1 24.3 18.5 71 3.5 SE 15 24 8 13 1014.2 1014.1 0.0
19/10:30pm 24.3 24.1 18.5 70 3.7 SE 17 24 9 13 1014.3 1014.2 0.0
19/10:00pm 24.4 24.3 18.8 71 3.6 ESE 17 26 9 14 1014.4 1014.3 0.0
19/09:30pm 24.5 24.1 18.9 71 3.6 ESE 19 30 10 16 1014.4 1014.3 0.0
19/09:00pm 24.4 24.2 18.6 70 3.7 ESE 17 22 9 12 1014.0 1013.9 0.0
19/08:30pm 24.6 24.2 19.0 71 3.6 SE 19 32 10 17 1013.7 1013.6 0.0
19/08:00pm 24.3 24.6 18.7 71 3.6 ESE 15 22 8 12 1013.4 1013.3 0.0
19/07:30pm 24.4 24.6 18.6 70 3.7 SE 15 20 8 11 1013.2 1013.1 0.0
19/07:00pm 24.7 24.5 18.6 69 3.9 SE 17 30 9 16 1012.8 1012.7 0.0
19/06:30pm 24.8 24.5 18.3 67 4.1 ESE 17 24 9 13 1012.4 1012.3 0.0
19/06:00pm 25.6 25.2 18.0 63 4.8 ESE 17 26 9 14 1011.8 1011.7 0.0

Other Formats:

Comma delimited format used in spreadsheet applications
http://www.bom.gov.au/fwo/IDQ60801/IDQ60801.94186.axf

JavaScript Object Notation format (JSON) in row-major order
http://www.bom.gov.au/fwo/IDQ60801/IDQ60801.94186.json